sensor_id;sensor_type;location;lat;lon;timestamp;P1;durP1;ratioP1;P2;durP2;ratioP2
52284;SDS011;38238;53.304;6.606;2022-12-18T00:04:05;65.15;;;37.08;;
52284;SDS011;38238;53.304;6.606;2022-12-18T00:06:33;57.33;;;33.28;;
52284;SDS011;38238;53.304;6.606;2022-12-18T00:08:59;55.25;;;32.22;;
52284;SDS011;38238;53.304;6.606;2022-12-18T00:11:27;62.72;;;35.20;;
52284;SDS011;38238;53.304;6.606;2022-12-18T00:13:56;50.53;;;30.67;;
52284;SDS011;38238;53.304;6.606;2022-12-18T00:16:23;68.75;;;39.25;;
52284;SDS011;38238;53.304;6.606;2022-12-18T00:18:51;53.63;;;30.90;;
52284;SDS011;38238;53.304;6.606;2022-12-18T00:21:18;56.65;;;34.67;;
52284;SDS011;38238;53.304;6.606;2022-12-18T00:23:45;61.05;;;36.45;;
52284;SDS011;38238;53.304;6.606;2022-12-18T00:26:31;48.78;;;30.50;;
52284;SDS011;38238;53.304;6.606;2022-12-18T00:28:59;58.15;;;33.15;;
52284;SDS011;38238;53.304;6.606;2022-12-18T00:31:26;51.13;;;32.47;;
52284;SDS011;38238;53.304;6.606;2022-12-18T00:33:54;59.88;;;31.48;;
52284;SDS011;38238;53.304;6.606;2022-12-18T00:36:25;61.40;;;33.70;;
52284;SDS011;38238;53.304;6.606;2022-12-18T00:38:57;55.58;;;34.28;;
52284;SDS011;38238;53.304;6.606;2022-12-18T00:41:23;56.72;;;33.33;;
52284;SDS011;38238;53.304;6.606;2022-12-18T00:44:09;67.72;;;36.95;;
52284;SDS011;38238;53.304;6.606;2022-12-18T00:46:37;71.47;;;36.40;;
52284;SDS011;38238;53.304;6.606;2022-12-18T00:49:03;61.47;;;33.15;;
52284;SDS011;38238;53.304;6.606;2022-12-18T00:51:29;57.80;;;33.85;;
52284;SDS011;38238;53.304;6.606;2022-12-18T00:53:55;62.13;;;35.60;;
52284;SDS011;38238;53.304;6.606;2022-12-18T00:56:20;64.47;;;33.17;;
52284;SDS011;38238;53.304;6.606;2022-12-18T00:58:46;68.65;;;36.33;;
52284;SDS011;38238;53.304;6.606;2022-12-18T01:01:12;71.45;;;38.22;;
52284;SDS011;38238;53.304;6.606;2022-12-18T01:03:38;71.70;;;37.20;;
52284;SDS011;38238;53.304;6.606;2022-12-18T01:06:07;66.53;;;38.33;;
52284;SDS011;38238;53.304;6.606;2022-12-18T01:08:35;63.75;;;34.42;;
52284;SDS011;38238;53.304;6.606;2022-12-18T01:11:06;50.67;;;31.13;;
52284;SDS011;38238;53.304;6.606;2022-12-18T01:13:37;68.30;;;35.47;;
52284;SDS011;38238;53.304;6.606;2022-12-18T01:16:03;53.60;;;29.23;;
52284;SDS011;38238;53.304;6.606;2022-12-18T01:18:29;65.47;;;38.00;;
52284;SDS011;38238;53.304;6.606;2022-12-18T01:20:55;64.47;;;32.78;;
52284;SDS011;38238;53.304;6.606;2022-12-18T01:23:20;65.25;;;36.70;;
52284;SDS011;38238;53.304;6.606;2022-12-18T01:25:46;64.55;;;33.45;;
52284;SDS011;38238;53.304;6.606;2022-12-18T01:28:12;64.43;;;36.42;;
52284;SDS011;38238;53.304;6.606;2022-12-18T01:30:37;68.70;;;37.83;;
52284;SDS011;38238;53.304;6.606;2022-12-18T01:33:06;60.22;;;34.67;;
52284;SDS011;38238;53.304;6.606;2022-12-18T01:35:32;62.75;;;37.78;;
52284;SDS011;38238;53.304;6.606;2022-12-18T01:37:57;68.68;;;35.38;;
52284;SDS011;38238;53.304;6.606;2022-12-18T01:40:23;54.38;;;30.17;;
52284;SDS011;38238;53.304;6.606;2022-12-18T01:42:52;59.72;;;35.13;;
52284;SDS011;38238;53.304;6.606;2022-12-18T01:47:49;58.97;;;33.20;;
52284;SDS011;38238;53.304;6.606;2022-12-18T01:50:19;60.08;;;34.28;;
52284;SDS011;38238;53.304;6.606;2022-12-18T01:52:53;56.55;;;32.40;;
52284;SDS011;38238;53.304;6.606;2022-12-18T01:55:22;58.38;;;34.00;;
52284;SDS011;38238;53.304;6.606;2022-12-18T01:57:54;54.97;;;30.67;;
52284;SDS011;38238;53.304;6.606;2022-12-18T02:00:23;55.80;;;34.15;;
52284;SDS011;38238;53.304;6.606;2022-12-18T02:02:51;54.40;;;30.52;;
52284;SDS011;38238;53.304;6.606;2022-12-18T02:05:19;57.47;;;30.00;;
52284;SDS011;38238;53.304;6.606;2022-12-18T02:13:14;62.83;;;35.00;;
52284;SDS011;38238;53.304;6.606;2022-12-18T02:16:08;56.22;;;33.33;;
52284;SDS011;38238;53.304;6.606;2022-12-18T02:18:58;57.90;;;33.13;;
52284;SDS011;38238;53.304;6.606;2022-12-18T02:26:49;53.97;;;31.40;;
52284;SDS011;38238;53.304;6.606;2022-12-18T02:29:23;57.95;;;33.17;;
52284;SDS011;38238;53.304;6.606;2022-12-18T02:31:57;55.83;;;32.45;;
52284;SDS011;38238;53.304;6.606;2022-12-18T02:34:26;62.25;;;32.10;;
52284;SDS011;38238;53.304;6.606;2022-12-18T02:36:55;55.33;;;32.08;;
52284;SDS011;38238;53.304;6.606;2022-12-18T02:39:22;58.13;;;35.03;;
52284;SDS011;38238;53.304;6.606;2022-12-18T02:41:50;60.63;;;35.30;;
52284;SDS011;38238;53.304;6.606;2022-12-18T02:44:16;58.50;;;34.85;;
52284;SDS011;38238;53.304;6.606;2022-12-18T02:46:43;66.53;;;36.63;;
52284;SDS011;38238;53.304;6.606;2022-12-18T02:54:44;58.97;;;29.10;;
52284;SDS011;38238;53.304;6.606;2022-12-18T03:00:11;58.85;;;33.30;;
52284;SDS011;38238;53.304;6.606;2022-12-18T03:07:42;62.20;;;34.78;;
52284;SDS011;38238;53.304;6.606;2022-12-18T03:10:16;62.10;;;34.88;;
52284;SDS011;38238;53.304;6.606;2022-12-18T03:12:52;59.17;;;33.25;;
52284;SDS011;38238;53.304;6.606;2022-12-18T03:15:27;58.80;;;34.53;;
52284;SDS011;38238;53.304;6.606;2022-12-18T03:17:59;54.90;;;31.08;;
52284;SDS011;38238;53.304;6.606;2022-12-18T03:20:30;49.85;;;27.55;;
52284;SDS011;38238;53.304;6.606;2022-12-18T03:22:59;60.60;;;36.25;;
52284;SDS011;38238;53.304;6.606;2022-12-18T03:25:31;64.80;;;36.38;;
52284;SDS011;38238;53.304;6.606;2022-12-18T03:27:59;76.78;;;38.10;;
52284;SDS011;38238;53.304;6.606;2022-12-18T03:30:28;66.32;;;37.17;;
52284;SDS011;38238;53.304;6.606;2022-12-18T03:33:01;70.72;;;35.40;;
52284;SDS011;38238;53.304;6.606;2022-12-18T03:35:34;66.45;;;34.20;;
52284;SDS011;38238;53.304;6.606;2022-12-18T03:38:03;68.28;;;35.70;;
52284;SDS011;38238;53.304;6.606;2022-12-18T03:40:31;66.82;;;36.70;;
52284;SDS011;38238;53.304;6.606;2022-12-18T03:43:19;64.00;;;31.38;;
52284;SDS011;38238;53.304;6.606;2022-12-18T03:46:15;63.95;;;33.25;;
52284;SDS011;38238;53.304;6.606;2022-12-18T03:48:49;74.63;;;37.40;;
52284;SDS011;38238;53.304;6.606;2022-12-18T03:51:44;68.47;;;38.92;;
52284;SDS011;38238;53.304;6.606;2022-12-18T03:54:16;71.03;;;38.85;;
52284;SDS011;38238;53.304;6.606;2022-12-18T03:56:48;71.97;;;36.97;;
52284;SDS011;38238;53.304;6.606;2022-12-18T03:59:18;56.50;;;31.60;;
52284;SDS011;38238;53.304;6.606;2022-12-18T04:01:46;67.05;;;36.35;;
52284;SDS011;38238;53.304;6.606;2022-12-18T04:04:14;63.72;;;34.35;;
52284;SDS011;38238;53.304;6.606;2022-12-18T04:06:41;63.85;;;36.75;;
52284;SDS011;38238;53.304;6.606;2022-12-18T04:09:08;66.90;;;36.78;;
52284;SDS011;38238;53.304;6.606;2022-12-18T04:11:34;68.07;;;32.10;;
52284;SDS011;38238;53.304;6.606;2022-12-18T04:14:00;65.07;;;37.22;;
52284;SDS011;38238;53.304;6.606;2022-12-18T04:16:26;64.32;;;35.22;;
52284;SDS011;38238;53.304;6.606;2022-12-18T04:18:52;63.97;;;37.97;;
52284;SDS011;38238;53.304;6.606;2022-12-18T04:21:19;72.32;;;36.88;;
52284;SDS011;38238;53.304;6.606;2022-12-18T04:23:45;55.33;;;34.30;;
52284;SDS011;38238;53.304;6.606;2022-12-18T04:26:10;73.70;;;41.15;;
52284;SDS011;38238;53.304;6.606;2022-12-18T04:28:36;72.55;;;38.72;;
52284;SDS011;38238;53.304;6.606;2022-12-18T04:31:02;58.22;;;38.72;;
52284;SDS011;38238;53.304;6.606;2022-12-18T04:33:28;61.55;;;36.33;;
52284;SDS011;38238;53.304;6.606;2022-12-18T04:35:54;71.10;;;42.38;;
52284;SDS011;38238;53.304;6.606;2022-12-18T04:38:19;63.67;;;37.25;;
52284;SDS011;38238;53.304;6.606;2022-12-18T04:40:45;60.95;;;37.42;;
52284;SDS011;38238;53.304;6.606;2022-12-18T04:43:11;45.00;;;25.92;;
52284;SDS011;38238;53.304;6.606;2022-12-18T04:45:37;68.03;;;37.80;;
52284;SDS011;38238;53.304;6.606;2022-12-18T04:48:03;68.65;;;40.78;;
52284;SDS011;38238;53.304;6.606;2022-12-18T04:50:29;59.47;;;38.45;;
52284;SDS011;38238;53.304;6.606;2022-12-18T04:52:55;53.83;;;32.17;;
52284;SDS011;38238;53.304;6.606;2022-12-18T04:55:21;64.90;;;38.35;;
52284;SDS011;38238;53.304;6.606;2022-12-18T04:57:47;64.80;;;40.40;;
52284;SDS011;38238;53.304;6.606;2022-12-18T05:00:13;67.22;;;41.45;;
52284;SDS011;38238;53.304;6.606;2022-12-18T05:02:39;60.85;;;40.55;;
52284;SDS011;38238;53.304;6.606;2022-12-18T05:05:05;60.90;;;34.92;;
52284;SDS011;38238;53.304;6.606;2022-12-18T05:07:31;68.55;;;40.08;;
52284;SDS011;38238;53.304;6.606;2022-12-18T05:09:57;50.80;;;33.25;;
52284;SDS011;38238;53.304;6.606;2022-12-18T05:12:22;57.58;;;38.00;;
52284;SDS011;38238;53.304;6.606;2022-12-18T05:14:48;64.55;;;37.78;;
52284;SDS011;38238;53.304;6.606;2022-12-18T05:17:14;52.05;;;33.55;;
52284;SDS011;38238;53.304;6.606;2022-12-18T05:19:39;55.80;;;38.42;;
52284;SDS011;38238;53.304;6.606;2022-12-18T05:22:05;69.28;;;40.22;;
52284;SDS011;38238;53.304;6.606;2022-12-18T05:24:31;51.83;;;32.33;;
52284;SDS011;38238;53.304;6.606;2022-12-18T05:26:57;51.53;;;32.55;;
52284;SDS011;38238;53.304;6.606;2022-12-18T05:29:22;62.35;;;32.35;;
52284;SDS011;38238;53.304;6.606;2022-12-18T05:31:48;64.78;;;41.53;;
52284;SDS011;38238;53.304;6.606;2022-12-18T05:34:15;64.38;;;40.10;;
52284;SDS011;38238;53.304;6.606;2022-12-18T05:36:41;54.10;;;35.15;;
52284;SDS011;38238;53.304;6.606;2022-12-18T05:39:07;57.38;;;38.15;;
52284;SDS011;38238;53.304;6.606;2022-12-18T05:41:33;60.45;;;41.80;;
52284;SDS011;38238;53.304;6.606;2022-12-18T05:43:58;66.57;;;44.67;;
52284;SDS011;38238;53.304;6.606;2022-12-18T05:46:24;63.90;;;43.10;;
52284;SDS011;38238;53.304;6.606;2022-12-18T05:48:50;56.42;;;35.25;;
52284;SDS011;38238;53.304;6.606;2022-12-18T05:51:17;54.97;;;35.63;;
52284;SDS011;38238;53.304;6.606;2022-12-18T05:53:44;45.83;;;30.58;;
52284;SDS011;38238;53.304;6.606;2022-12-18T05:56:11;48.08;;;28.48;;
52284;SDS011;38238;53.304;6.606;2022-12-18T05:58:42;38.88;;;23.52;;
52284;SDS011;38238;53.304;6.606;2022-12-18T06:01:10;57.50;;;41.65;;
52284;SDS011;38238;53.304;6.606;2022-12-18T06:03:36;59.17;;;41.10;;
52284;SDS011;38238;53.304;6.606;2022-12-18T06:06:01;57.78;;;37.78;;
52284;SDS011;38238;53.304;6.606;2022-12-18T06:08:27;57.35;;;38.10;;
52284;SDS011;38238;53.304;6.606;2022-12-18T06:10:53;56.00;;;37.83;;
52284;SDS011;38238;53.304;6.606;2022-12-18T06:13:19;61.63;;;40.45;;
52284;SDS011;38238;53.304;6.606;2022-12-18T06:15:45;55.45;;;40.72;;
52284;SDS011;38238;53.304;6.606;2022-12-18T06:18:11;58.40;;;38.33;;
52284;SDS011;38238;53.304;6.606;2022-12-18T06:20:36;43.08;;;30.25;;
52284;SDS011;38238;53.304;6.606;2022-12-18T06:23:04;59.22;;;37.92;;
52284;SDS011;38238;53.304;6.606;2022-12-18T06:25:30;50.10;;;35.15;;
52284;SDS011;38238;53.304;6.606;2022-12-18T06:27:57;49.55;;;34.47;;
52284;SDS011;38238;53.304;6.606;2022-12-18T06:30:22;41.70;;;31.48;;
52284;SDS011;38238;53.304;6.606;2022-12-18T06:32:48;42.92;;;32.13;;
52284;SDS011;38238;53.304;6.606;2022-12-18T06:35:15;37.35;;;30.55;;
52284;SDS011;38238;53.304;6.606;2022-12-18T06:37:40;53.83;;;41.88;;
52284;SDS011;38238;53.304;6.606;2022-12-18T06:40:06;48.28;;;36.42;;
52284;SDS011;38238;53.304;6.606;2022-12-18T06:42:33;44.60;;;34.65;;
52284;SDS011;38238;53.304;6.606;2022-12-18T06:44:59;44.85;;;32.78;;
52284;SDS011;38238;53.304;6.606;2022-12-18T06:47:24;50.53;;;34.42;;
52284;SDS011;38238;53.304;6.606;2022-12-18T06:49:50;42.28;;;29.67;;
52284;SDS011;38238;53.304;6.606;2022-12-18T06:52:16;42.30;;;34.38;;
52284;SDS011;38238;53.304;6.606;2022-12-18T06:54:41;41.92;;;32.90;;
52284;SDS011;38238;53.304;6.606;2022-12-18T06:57:07;47.95;;;36.13;;
52284;SDS011;38238;53.304;6.606;2022-12-18T06:59:33;45.60;;;32.63;;
52284;SDS011;38238;53.304;6.606;2022-12-18T07:01:58;46.42;;;36.55;;
52284;SDS011;38238;53.304;6.606;2022-12-18T07:04:30;30.98;;;27.75;;
52284;SDS011;38238;53.304;6.606;2022-12-18T07:06:56;42.47;;;34.13;;
52284;SDS011;38238;53.304;6.606;2022-12-18T07:09:22;38.85;;;31.90;;
52284;SDS011;38238;53.304;6.606;2022-12-18T07:11:48;37.75;;;28.00;;
52284;SDS011;38238;53.304;6.606;2022-12-18T07:14:14;37.78;;;31.05;;
52284;SDS011;38238;53.304;6.606;2022-12-18T07:16:39;48.80;;;34.72;;
52284;SDS011;38238;53.304;6.606;2022-12-18T07:19:05;29.38;;;23.30;;
52284;SDS011;38238;53.304;6.606;2022-12-18T07:21:31;35.95;;;31.00;;
52284;SDS011;38238;53.304;6.606;2022-12-18T07:23:57;40.20;;;36.03;;
52284;SDS011;38238;53.304;6.606;2022-12-18T07:26:22;37.95;;;34.10;;
52284;SDS011;38238;53.304;6.606;2022-12-18T07:28:48;41.15;;;37.20;;
52284;SDS011;38238;53.304;6.606;2022-12-18T07:31:16;41.60;;;34.22;;
52284;SDS011;38238;53.304;6.606;2022-12-18T07:33:44;37.17;;;32.13;;
52284;SDS011;38238;53.304;6.606;2022-12-18T07:36:11;46.33;;;41.47;;
52284;SDS011;38238;53.304;6.606;2022-12-18T07:38:37;38.83;;;34.88;;
52284;SDS011;38238;53.304;6.606;2022-12-18T07:41:06;35.42;;;31.83;;
52284;SDS011;38238;53.304;6.606;2022-12-18T07:43:34;32.65;;;29.33;;
52284;SDS011;38238;53.304;6.606;2022-12-18T07:46:00;43.35;;;38.97;;
52284;SDS011;38238;53.304;6.606;2022-12-18T07:48:26;43.28;;;36.25;;
52284;SDS011;38238;53.304;6.606;2022-12-18T07:50:53;42.38;;;36.10;;
52284;SDS011;38238;53.304;6.606;2022-12-18T07:53:18;35.08;;;31.27;;
52284;SDS011;38238;53.304;6.606;2022-12-18T07:55:44;35.72;;;30.48;;
52284;SDS011;38238;53.304;6.606;2022-12-18T07:58:10;37.72;;;33.67;;
52284;SDS011;38238;53.304;6.606;2022-12-18T08:00:36;31.65;;;28.40;;
52284;SDS011;38238;53.304;6.606;2022-12-18T08:03:02;42.45;;;38.30;;
52284;SDS011;38238;53.304;6.606;2022-12-18T08:05:27;38.10;;;34.33;;
52284;SDS011;38238;53.304;6.606;2022-12-18T08:07:53;38.63;;;33.33;;
52284;SDS011;38238;53.304;6.606;2022-12-18T08:10:19;35.28;;;31.63;;
52284;SDS011;38238;53.304;6.606;2022-12-18T08:12:45;33.88;;;30.40;;
52284;SDS011;38238;53.304;6.606;2022-12-18T08:15:13;35.47;;;30.83;;
52284;SDS011;38238;53.304;6.606;2022-12-18T08:17:39;37.28;;;33.63;;
52284;SDS011;38238;53.304;6.606;2022-12-18T08:20:05;38.95;;;34.72;;
52284;SDS011;38238;53.304;6.606;2022-12-18T08:22:33;44.67;;;37.70;;
52284;SDS011;38238;53.304;6.606;2022-12-18T08:25:02;38.28;;;32.47;;
52284;SDS011;38238;53.304;6.606;2022-12-18T08:27:28;36.20;;;32.42;;
52284;SDS011;38238;53.304;6.606;2022-12-18T08:29:54;48.67;;;43.97;;
52284;SDS011;38238;53.304;6.606;2022-12-18T08:32:20;38.47;;;34.35;;
52284;SDS011;38238;53.304;6.606;2022-12-18T08:34:46;40.90;;;37.03;;
52284;SDS011;38238;53.304;6.606;2022-12-18T08:37:12;38.03;;;31.30;;
52284;SDS011;38238;53.304;6.606;2022-12-18T08:39:37;34.50;;;30.17;;
52284;SDS011;38238;53.304;6.606;2022-12-18T08:42:03;33.78;;;30.38;;
52284;SDS011;38238;53.304;6.606;2022-12-18T08:44:47;36.88;;;32.83;;
52284;SDS011;38238;53.304;6.606;2022-12-18T08:47:13;37.05;;;33.13;;
52284;SDS011;38238;53.304;6.606;2022-12-18T08:49:38;36.97;;;33.38;;
52284;SDS011;38238;53.304;6.606;2022-12-18T08:52:04;35.58;;;31.52;;
52284;SDS011;38238;53.304;6.606;2022-12-18T08:54:30;37.75;;;30.80;;
52284;SDS011;38238;53.304;6.606;2022-12-18T08:56:56;37.90;;;33.45;;
52284;SDS011;38238;53.304;6.606;2022-12-18T08:59:21;36.65;;;32.80;;
52284;SDS011;38238;53.304;6.606;2022-12-18T09:01:49;33.13;;;28.80;;
52284;SDS011;38238;53.304;6.606;2022-12-18T09:04:15;41.30;;;37.47;;
52284;SDS011;38238;53.304;6.606;2022-12-18T09:06:41;39.17;;;35.58;;
52284;SDS011;38238;53.304;6.606;2022-12-18T09:09:06;36.38;;;32.42;;
52284;SDS011;38238;53.304;6.606;2022-12-18T09:11:32;37.22;;;33.65;;
52284;SDS011;38238;53.304;6.606;2022-12-18T09:13:59;40.90;;;37.15;;
52284;SDS011;38238;53.304;6.606;2022-12-18T09:16:26;43.15;;;39.03;;
52284;SDS011;38238;53.304;6.606;2022-12-18T09:18:56;40.72;;;36.75;;
52284;SDS011;38238;53.304;6.606;2022-12-18T09:21:27;38.15;;;34.35;;
52284;SDS011;38238;53.304;6.606;2022-12-18T09:24:03;37.90;;;34.05;;
52284;SDS011;38238;53.304;6.606;2022-12-18T09:26:30;39.78;;;36.20;;
52284;SDS011;38238;53.304;6.606;2022-12-18T09:28:55;34.70;;;31.35;;
52284;SDS011;38238;53.304;6.606;2022-12-18T09:31:22;39.28;;;35.53;;
52284;SDS011;38238;53.304;6.606;2022-12-18T09:33:48;34.80;;;31.23;;
52284;SDS011;38238;53.304;6.606;2022-12-18T09:36:15;38.35;;;34.55;;
52284;SDS011;38238;53.304;6.606;2022-12-18T09:38:42;30.88;;;27.85;;
52284;SDS011;38238;53.304;6.606;2022-12-18T09:41:24;38.95;;;35.30;;
52284;SDS011;38238;53.304;6.606;2022-12-18T09:43:57;34.95;;;31.83;;
52284;SDS011;38238;53.304;6.606;2022-12-18T09:46:28;36.15;;;32.80;;
52284;SDS011;38238;53.304;6.606;2022-12-18T09:48:59;38.65;;;34.50;;
52284;SDS011;38238;53.304;6.606;2022-12-18T09:54:20;35.00;;;31.50;;
52284;SDS011;38238;53.304;6.606;2022-12-18T09:56:50;34.10;;;30.88;;
52284;SDS011;38238;53.304;6.606;2022-12-18T10:01:50;32.05;;;29.20;;
52284;SDS011;38238;53.304;6.606;2022-12-18T10:04:16;35.08;;;31.98;;
52284;SDS011;38238;53.304;6.606;2022-12-18T10:09:25;30.65;;;27.83;;
52284;SDS011;38238;53.304;6.606;2022-12-18T10:14:43;38.42;;;34.90;;
52284;SDS011;38238;53.304;6.606;2022-12-18T10:20:16;30.33;;;27.65;;
52284;SDS011;38238;53.304;6.606;2022-12-18T10:23:03;31.30;;;28.70;;
52284;SDS011;38238;53.304;6.606;2022-12-18T10:28:13;26.48;;;24.08;;
52284;SDS011;38238;53.304;6.606;2022-12-18T10:30:40;25.83;;;23.58;;
52284;SDS011;38238;53.304;6.606;2022-12-18T10:33:10;24.73;;;22.17;;
52284;SDS011;38238;53.304;6.606;2022-12-18T10:35:42;20.92;;;19.05;;
52284;SDS011;38238;53.304;6.606;2022-12-18T10:40:48;21.92;;;19.73;;
52284;SDS011;38238;53.304;6.606;2022-12-18T10:43:19;20.98;;;17.90;;
52284;SDS011;38238;53.304;6.606;2022-12-18T10:48:34;18.95;;;16.00;;
52284;SDS011;38238;53.304;6.606;2022-12-18T10:51:04;17.40;;;14.35;;
52284;SDS011;38238;53.304;6.606;2022-12-18T10:53:33;16.42;;;13.38;;
52284;SDS011;38238;53.304;6.606;2022-12-18T10:56:02;15.98;;;14.27;;
52284;SDS011;38238;53.304;6.606;2022-12-18T10:58:31;17.20;;;14.00;;
52284;SDS011;38238;53.304;6.606;2022-12-18T11:01:15;16.58;;;14.18;;
52284;SDS011;38238;53.304;6.606;2022-12-18T11:06:19;16.90;;;14.25;;
52284;SDS011;38238;53.304;6.606;2022-12-18T11:08:58;16.27;;;13.43;;
52284;SDS011;38238;53.304;6.606;2022-12-18T11:11:24;18.88;;;14.32;;
52284;SDS011;38238;53.304;6.606;2022-12-18T11:13:58;17.40;;;15.57;;
52284;SDS011;38238;53.304;6.606;2022-12-18T11:16:43;21.30;;;17.20;;
52284;SDS011;38238;53.304;6.606;2022-12-18T11:22:02;19.98;;;15.93;;
52284;SDS011;38238;53.304;6.606;2022-12-18T11:24:49;18.40;;;16.02;;
52284;SDS011;38238;53.304;6.606;2022-12-18T11:27:28;18.05;;;15.95;;
52284;SDS011;38238;53.304;6.606;2022-12-18T11:30:20;17.77;;;15.90;;
52284;SDS011;38238;53.304;6.606;2022-12-18T11:32:55;16.27;;;14.57;;
52284;SDS011;38238;53.304;6.606;2022-12-18T11:38:21;18.40;;;14.55;;
52284;SDS011;38238;53.304;6.606;2022-12-18T11:44:14;16.52;;;14.73;;
52284;SDS011;38238;53.304;6.606;2022-12-18T11:46:51;16.98;;;13.35;;
52284;SDS011;38238;53.304;6.606;2022-12-18T11:49:25;16.77;;;13.93;;
52284;SDS011;38238;53.304;6.606;2022-12-18T11:54:25;16.25;;;13.75;;
52284;SDS011;38238;53.304;6.606;2022-12-18T11:56:53;19.85;;;13.68;;
52284;SDS011;38238;53.304;6.606;2022-12-18T12:01:53;16.27;;;13.07;;
52284;SDS011;38238;53.304;6.606;2022-12-18T12:07:15;15.10;;;13.10;;
52284;SDS011;38238;53.304;6.606;2022-12-18T12:39:43;16.15;;;12.35;;
52284;SDS011;38238;53.304;6.606;2022-12-18T12:45:23;12.48;;;11.23;;
52284;SDS011;38238;53.304;6.606;2022-12-18T12:47:55;13.40;;;11.98;;
52284;SDS011;38238;53.304;6.606;2022-12-18T12:50:24;13.50;;;11.38;;
52284;SDS011;38238;53.304;6.606;2022-12-18T12:52:54;13.38;;;11.98;;
52284;SDS011;38238;53.304;6.606;2022-12-18T12:55:22;13.50;;;11.43;;
52284;SDS011;38238;53.304;6.606;2022-12-18T12:57:56;13.70;;;12.50;;
52284;SDS011;38238;53.304;6.606;2022-12-18T13:01:14;13.80;;;10.63;;
52284;SDS011;38238;53.304;6.606;2022-12-18T13:06:02;12.73;;;11.45;;
52284;SDS011;38238;53.304;6.606;2022-12-18T13:11:41;12.55;;;11.35;;
52284;SDS011;38238;53.304;6.606;2022-12-18T13:14:45;12.43;;;11.18;;
52284;SDS011;38238;53.304;6.606;2022-12-18T13:17:15;11.70;;;10.55;;
52284;SDS011;38238;53.304;6.606;2022-12-18T13:20:07;12.13;;;10.93;;
52284;SDS011;38238;53.304;6.606;2022-12-18T13:22:37;12.13;;;11.13;;
52284;SDS011;38238;53.304;6.606;2022-12-18T13:40:58;11.32;;;9.88;;
52284;SDS011;38238;53.304;6.606;2022-12-18T13:43:29;11.45;;;10.35;;
52284;SDS011;38238;53.304;6.606;2022-12-18T13:46:21;11.50;;;10.40;;
52284;SDS011;38238;53.304;6.606;2022-12-18T13:48:53;10.57;;;9.55;;
52284;SDS011;38238;53.304;6.606;2022-12-18T13:51:22;12.35;;;10.60;;
52284;SDS011;38238;53.304;6.606;2022-12-18T13:56:31;11.45;;;10.30;;
52284;SDS011;38238;53.304;6.606;2022-12-18T14:01:54;11.48;;;10.30;;
52284;SDS011;38238;53.304;6.606;2022-12-18T14:04:29;11.70;;;10.70;;
52284;SDS011;38238;53.304;6.606;2022-12-18T14:09:54;12.20;;;11.05;;
52284;SDS011;38238;53.304;6.606;2022-12-18T14:12:26;13.07;;;11.80;;
52284;SDS011;38238;53.304;6.606;2022-12-18T14:20:41;12.15;;;10.95;;
52284;SDS011;38238;53.304;6.606;2022-12-18T14:23:25;12.60;;;10.70;;
52284;SDS011;38238;53.304;6.606;2022-12-18T14:26:03;11.25;;;10.15;;
52284;SDS011;38238;53.304;6.606;2022-12-18T14:28:50;11.35;;;10.25;;
52284;SDS011;38238;53.304;6.606;2022-12-18T14:31:20;12.35;;;11.02;;
52284;SDS011;38238;53.304;6.606;2022-12-18T14:33:48;13.10;;;11.70;;
52284;SDS011;38238;53.304;6.606;2022-12-18T14:36:16;12.68;;;11.38;;
52284;SDS011;38238;53.304;6.606;2022-12-18T14:39:04;11.38;;;10.23;;
52284;SDS011;38238;53.304;6.606;2022-12-18T14:41:30;13.30;;;11.63;;
52284;SDS011;38238;53.304;6.606;2022-12-18T14:44:04;13.18;;;11.90;;
52284;SDS011;38238;53.304;6.606;2022-12-18T14:49:01;13.10;;;11.70;;
52284;SDS011;38238;53.304;6.606;2022-12-18T14:51:30;13.02;;;11.40;;
52284;SDS011;38238;53.304;6.606;2022-12-18T14:56:32;14.25;;;12.48;;
52284;SDS011;38238;53.304;6.606;2022-12-18T14:59:04;13.80;;;12.15;;
52284;SDS011;38238;53.304;6.606;2022-12-18T15:01:37;13.40;;;11.18;;
52284;SDS011;38238;53.304;6.606;2022-12-18T15:04:32;13.60;;;12.20;;
52284;SDS011;38238;53.304;6.606;2022-12-18T15:07:08;13.45;;;12.05;;
52284;SDS011;38238;53.304;6.606;2022-12-18T15:09:34;13.00;;;11.70;;
52284;SDS011;38238;53.304;6.606;2022-12-18T15:12:01;15.10;;;13.02;;
52284;SDS011;38238;53.304;6.606;2022-12-18T15:17:00;16.70;;;13.65;;
52284;SDS011;38238;53.304;6.606;2022-12-18T15:19:32;13.88;;;12.50;;
52284;SDS011;38238;53.304;6.606;2022-12-18T15:22:12;15.18;;;13.73;;
52284;SDS011;38238;53.304;6.606;2022-12-18T15:24:50;14.88;;;13.35;;
52284;SDS011;38238;53.304;6.606;2022-12-18T15:30:02;18.52;;;14.02;;
52284;SDS011;38238;53.304;6.606;2022-12-18T15:32:43;15.05;;;12.85;;
52284;SDS011;38238;53.304;6.606;2022-12-18T15:37:41;17.42;;;13.50;;
52284;SDS011;38238;53.304;6.606;2022-12-18T15:40:08;15.05;;;13.55;;
52284;SDS011;38238;53.304;6.606;2022-12-18T15:42:41;14.82;;;13.25;;
52284;SDS011;38238;53.304;6.606;2022-12-18T15:45:26;17.42;;;14.25;;
52284;SDS011;38238;53.304;6.606;2022-12-18T15:47:52;16.27;;;13.80;;
52284;SDS011;38238;53.304;6.606;2022-12-18T15:50:17;15.82;;;13.50;;
52284;SDS011;38238;53.304;6.606;2022-12-18T15:52:47;17.08;;;13.48;;
52284;SDS011;38238;53.304;6.606;2022-12-18T15:55:18;15.15;;;13.60;;
52284;SDS011;38238;53.304;6.606;2022-12-18T15:58:04;15.68;;;14.07;;
52284;SDS011;38238;53.304;6.606;2022-12-18T16:00:31;15.60;;;13.30;;
52284;SDS011;38238;53.304;6.606;2022-12-18T16:02:59;16.13;;;14.13;;
52284;SDS011;38238;53.304;6.606;2022-12-18T16:05:24;16.75;;;14.52;;
52284;SDS011;38238;53.304;6.606;2022-12-18T16:07:52;14.68;;;13.10;;
52284;SDS011;38238;53.304;6.606;2022-12-18T16:10:18;15.05;;;13.07;;
52284;SDS011;38238;53.304;6.606;2022-12-18T16:12:44;17.60;;;14.23;;
52284;SDS011;38238;53.304;6.606;2022-12-18T16:15:11;16.23;;;13.35;;
52284;SDS011;38238;53.304;6.606;2022-12-18T16:17:41;15.30;;;13.07;;
52284;SDS011;38238;53.304;6.606;2022-12-18T16:20:14;18.20;;;14.35;;
52284;SDS011;38238;53.304;6.606;2022-12-18T16:22:42;16.90;;;12.95;;
52284;SDS011;38238;53.304;6.606;2022-12-18T16:25:25;16.05;;;13.68;;
52284;SDS011;38238;53.304;6.606;2022-12-18T16:27:53;14.20;;;12.77;;
52284;SDS011;38238;53.304;6.606;2022-12-18T16:30:29;16.58;;;13.35;;
52284;SDS011;38238;53.304;6.606;2022-12-18T16:32:57;14.70;;;13.10;;
52284;SDS011;38238;53.304;6.606;2022-12-18T16:35:23;15.38;;;13.13;;
52284;SDS011;38238;53.304;6.606;2022-12-18T16:37:49;15.30;;;13.48;;
52284;SDS011;38238;53.304;6.606;2022-12-18T16:40:15;17.75;;;14.88;;
52284;SDS011;38238;53.304;6.606;2022-12-18T16:42:42;16.60;;;14.45;;
52284;SDS011;38238;53.304;6.606;2022-12-18T16:45:11;17.92;;;15.75;;
52284;SDS011;38238;53.304;6.606;2022-12-18T16:47:38;18.73;;;15.60;;
52284;SDS011;38238;53.304;6.606;2022-12-18T16:50:04;15.38;;;13.82;;
52284;SDS011;38238;53.304;6.606;2022-12-18T16:52:30;15.57;;;14.02;;
52284;SDS011;38238;53.304;6.606;2022-12-18T16:54:56;16.20;;;13.88;;
52284;SDS011;38238;53.304;6.606;2022-12-18T16:57:22;14.60;;;13.20;;
52284;SDS011;38238;53.304;6.606;2022-12-18T16:59:48;16.02;;;13.73;;
52284;SDS011;38238;53.304;6.606;2022-12-18T17:04:41;13.98;;;12.48;;
52284;SDS011;38238;53.304;6.606;2022-12-18T17:07:07;15.10;;;13.05;;
52284;SDS011;38238;53.304;6.606;2022-12-18T17:09:33;14.45;;;12.95;;